Latest Weather Observations for Kununurra Airport

IDD60801

Issued at 4:11 pm CST Saturday 28 January 2023 (issued every 10 minutes, with the page automatically refreshed every 10 minutes)

About weather observations | Map of weather stations | Latest weather observations for NT | Other Formats
Station Details ID: 002056 Name: KUNUNURRA AERO Lat: -15.78 Lon: 128.71 Height: 44.0 m
Data from the previous 72 hours. | See also: Recent months at Kununurra Airport
Date/Time
CST
Temp
°C
App
Temp
°C
Dew
Point
°C
Rel
Hum
%
Delta-T
°C
Wind Press
QNH
hPa
Press
MSL
hPa
Rain since
9am
mm
Dir  Spd
km/h
Gust
km/h
Spd
kts
Gust
kts
28/04:00pm 34.7 38.9 23.1 51 8.1 NNW 6 9 3 5 1002.5 1002.1 0.0
28/03:30pm 34.0 38.7 24.0 56 7.0 N 6 13 3 7 1003.0 1002.6 0.0
28/03:00pm 33.8 37.9 23.2 54 7.4 NNW 7 13 4 7 1003.2 1002.8 0.0
28/02:30pm 34.0 39.2 24.8 58 6.5 NNE 6 13 3 7 1003.7 1003.3 0.0
28/02:00pm 32.6 36.4 24.1 61 5.9 NNW 11 15 6 8 1004.4 1004.0 0.0
28/01:30pm 33.1 37.4 24.3 60 6.2 NNW 9 13 5 7 1004.8 1004.5 0.0
28/01:00pm 33.2 38.5 24.9 61 5.9 NNW 6 9 3 5 1005.3 1005.0 0.0
28/12:30pm 32.8 37.6 25.1 64 5.5 NNW 9 13 5 7 1005.9 1005.6 0.0
28/12:00pm 32.3 37.6 24.3 62 5.6 NE 4 11 2 6 1006.1 1005.8 0.0
28/11:30am 31.8 36.6 24.4 65 5.2 WSW 7 9 4 5 1006.6 1006.3 0.0
28/11:00am 31.3 35.7 24.4 66 4.8 WSW 9 13 5 7 1006.9 1006.6 0.0
28/10:30am 31.0 35.7 25.6 73 3.8 SW 11 17 6 9 1006.9 1006.6 2.2
28/10:00am 30.3 37.0 26.5 80 2.7 WSW 4 9 2 5 1007.3 1007.0 2.2
28/09:30am 29.3 36.1 25.5 80 2.7 CALM 0 6 0 3 1007.5 1007.2 2.2
28/09:00am 28.8 35.6 25.6 83 2.3 CALM 0 4 0 2 1007.3 1007.0 2.2
28/08:30am 28.0 34.5 25.6 87 1.7 ESE 2 7 1 4 1007.1 1006.8 2.2
28/08:00am 26.9 33.7 25.5 92 1.0 CALM 0 0 0 0 1006.9 1006.6 2.2
28/07:30am 25.7 31.3 25.4 98 0.2 WSW 6 7 3 4 1006.5 1006.2 2.2
28/07:00am 24.9 31.1 24.6 98 0.2 CALM 0 0 0 0 1006.1 1005.8 2.2
28/06:30am 24.8 30.9 24.5 98 0.2 CALM 0 0 0 0 1005.9 1005.6 2.2
28/06:00am 24.8 30.8 24.3 97 0.3 CALM 0 0 0 0 1005.6 1005.3 2.2
28/05:30am 24.9 31.0 24.4 97 0.3 CALM 0 0 0 0 1005.1 1004.8 2.2
28/05:00am 25.2 31.3 24.5 96 0.5 CALM 0 0 0 0 1004.9 1004.6 2.2
28/04:30am 25.3 31.5 24.6 96 0.5 CALM 0 0 0 0 1004.8 1004.5 2.2
28/04:00am 25.4 31.7 24.7 96 0.5 CALM 0 0 0 0 1004.7 1004.4 2.2
28/03:30am 25.7 32.0 24.8 95 0.6 CALM 0 0 0 0 1004.8 1004.5 2.2
28/03:00am 25.7 32.0 24.8 95 0.6 CALM 0 0 0 0 1005.0 1004.7 2.2
28/02:30am 26.0 30.4 25.0 94 0.7 N 11 13 6 7 1005.1 1004.8 2.2
28/02:00am 26.0 31.1 25.0 94 0.7 N 7 9 4 5 1005.5 1005.2 2.2
28/01:30am 25.9 31.0 25.0 95 0.6 N 7 9 4 5 1005.7 1005.4 2.2
28/01:00am 26.0 30.4 25.0 94 0.7 NNE 11 13 6 7 1006.0 1005.7 2.2
28/12:30am 26.4 33.1 25.4 94 0.7 CALM 0 0 0 0 1006.5 1006.2 2.2
28/12:00am 26.1 31.5 25.2 95 0.6 NW 6 7 3 4 1006.8 1006.5 2.2
 
Date/Time
CST
Temp
°C
App
Temp
°C
Dew
Point
°C
Rel
Hum
%
Delta-T
°C
Wind Press
QNH
hPa
Press
MSL
hPa
Rain since
9am
mm
Dir  Spd
km/h
Gust
km/h
Spd
kts
Gust
kts
27/11:30pm 26.4 32.2 25.2 93 0.8 N 4 7 2 4 1007.0 1006.7 2.2
27/11:00pm 27.0 33.7 25.4 91 1.1 CALM 0 0 0 0 1007.2 1006.9 2.2
27/10:30pm 27.0 33.3 25.4 91 1.1 NNE 2 6 1 3 1007.1 1006.8 2.2
27/10:00pm 27.4 33.2 25.8 91 1.1 NE 6 7 3 4 1007.3 1007.0 2.2
27/09:30pm 27.5 34.4 25.7 90 1.3 CALM 0 0 0 0 1007.3 1007.0 2.2
27/09:00pm 27.6 34.7 26.0 91 1.1 CALM 0 0 0 0 1006.9 1006.6 2.2
27/08:30pm 28.0 35.0 25.8 88 1.6 CALM 0 0 0 0 1006.3 1006.0 2.2
27/08:00pm 28.4 35.8 26.4 89 1.4 CALM 0 0 0 0 1006.0 1005.7 2.2
27/07:30pm 29.1 36.3 26.1 84 2.1 CALM 0 0 0 0 1005.7 1005.4 2.2
27/07:00pm 30.0 36.6 25.3 76 3.3 CALM 0 0 0 0 1005.1 1004.8 2.2
27/06:30pm 30.8 35.7 24.7 70 4.3 WNW 7 11 4 6 1004.8 1004.5 2.2
27/06:00pm 30.8 35.2 24.4 68 4.5 WNW 9 11 5 6 1004.7 1004.4 2.2
27/05:30pm 30.5 34.1 24.4 70 4.3 NW 13 15 7 8 1004.3 1003.9 2.2
27/05:00pm 31.0 35.2 24.1 66 4.8 WNW 9 13 5 7 1004.1 1003.7 2.2
27/04:30pm 30.1 33.8 24.5 72 3.9 NW 13 20 7 11 1004.4 1004.0 2.2
27/04:00pm 29.3 32.3 24.6 76 3.3 WNW 17 24 9 13 1004.6 1004.2 2.2
27/03:30pm 30.1 35.7 26.3 80 2.7 WNW 9 19 5 10 1005.2 1004.9 2.2
27/03:00pm 28.6 34.4 25.8 85 2.0 SSW 6 9 3 5 1005.5 1005.2 2.2
27/02:51pm 27.9 32.7 25.1 85 2.0 SW 9 11 5 6 1005.7 1005.4 2.2
27/02:32pm 27.0 29.1 24.1 84 2.0 WNW 20 32 11 17 1005.8 1005.5 1.6
27/02:30pm 27.2 29.5 24.1 83 2.1 WNW 19 32 10 17 1005.8 1005.5 0.6
27/02:00pm 31.2 32.9 23.0 61 5.6 E 19 22 10 12 1006.2 1005.9 0.0
27/01:30pm 32.2 35.6 24.0 62 5.7 NNW 13 19 7 10 1006.7 1006.4 0.0
27/01:00pm 33.2 37.4 24.7 61 6.0 NNE 11 19 6 10 1007.1 1006.8 0.0
27/12:30pm 32.0 35.8 23.5 60 5.9 NW 9 15 5 8 1007.6 1007.3 0.0
27/12:00pm 31.9 35.4 22.9 59 6.2 N 9 15 5 8 1008.0 1007.7 0.0
27/11:30am 31.6 35.9 23.7 63 5.5 NW 7 13 4 7 1008.4 1008.1 0.0
27/11:00am 31.2 35.8 24.1 66 5.0 NW 7 11 4 6 1008.9 1008.6 0.0
27/10:30am 30.6 35.7 24.0 68 4.6 W 4 7 2 4 1009.3 1009.0 1.0
27/10:00am 30.5 36.3 24.6 70 4.1 W 2 7 1 4 1009.6 1009.3 1.0
27/09:30am 30.1 36.0 25.4 76 3.3 S 4 9 2 5 1009.7 1009.4 1.0
27/09:00am 28.3 34.1 24.5 80 2.6 SSW 2 7 1 4 1009.4 1009.1 1.0
27/08:30am 28.3 34.7 24.9 82 2.4 CALM 0 0 0 0 1009.1 1008.8 1.0
27/08:00am 26.2 32.3 24.4 90 1.2 CALM 0 0 0 0 1009.0 1008.7 1.0
27/07:30am 25.9 32.2 24.7 93 0.8 CALM 0 0 0 0 1008.8 1008.5 1.0
27/07:00am 25.3 31.6 24.8 97 0.3 CALM 0 0 0 0 1008.6 1008.3 1.0
27/06:30am 25.2 31.5 24.7 97 0.3 CALM 0 0 0 0 1008.2 1007.9 1.0
27/06:00am 25.4 31.7 24.7 96 0.5 CALM 0 0 0 0 1007.7 1007.4 1.0
27/05:30am 25.3 31.5 24.6 96 0.5 CALM 0 0 0 0 1007.4 1007.1 1.0
27/05:00am 25.2 31.3 24.5 96 0.5 CALM 0 0 0 0 1007.4 1007.1 1.0
27/04:30am 25.3 31.6 24.8 97 0.3 CALM 0 0 0 0 1007.3 1007.0 1.0
27/04:00am 25.4 31.7 24.7 96 0.5 CALM 0 0 0 0 1007.1 1006.8 1.0
27/03:30am 25.5 31.7 24.6 95 0.6 CALM 0 0 0 0 1007.2 1006.9 1.0
27/03:00am 25.7 32.0 24.8 95 0.6 CALM 0 0 0 0 1007.1 1006.8 1.0
27/02:30am 25.9 32.0 24.5 92 1.0 CALM 0 0 0 0 1007.0 1006.7 1.0
27/02:00am 25.9 31.2 24.9 94 0.7 SSW 6 7 3 4 1007.2 1006.9 1.0
27/01:30am 26.1 32.5 24.9 93 0.8 CALM 0 7 0 4 1007.6 1007.3 1.0
27/01:00am 26.2 32.4 24.6 91 1.1 CALM 0 0 0 0 1008.2 1007.9 1.0
27/12:30am 26.2 32.8 25.2 94 0.7 CALM 0 0 0 0 1008.7 1008.4 1.0
27/12:00am 26.3 32.6 24.7 91 1.1 CALM 0 0 0 0 1009.3 1009.0 1.0
 
Date/Time
CST
Temp
°C
App
Temp
°C
Dew
Point
°C
Rel
Hum
%
Delta-T
°C
Wind Press
QNH
hPa
Press
MSL
hPa
Rain since
9am
mm
Dir  Spd
km/h
Gust
km/h
Spd
kts
Gust
kts
26/11:30pm 26.3 32.6 24.7 91 1.1 CALM 0 0 0 0 1009.5 1009.2 1.0
26/11:00pm 26.3 31.4 24.7 91 1.1 SE 6 7 3 4 1009.6 1009.3 1.0
26/10:30pm 26.3 31.4 24.7 91 1.1 SE 6 7 3 4 1009.8 1009.5 1.0
26/10:00pm 26.3 31.1 24.5 90 1.2 SE 7 9 4 5 1009.7 1009.4 1.0
26/09:30pm 26.4 30.8 24.4 89 1.4 ESE 9 13 5 7 1009.7 1009.4 1.0
26/09:00pm 26.5 30.4 24.3 88 1.5 ESE 11 13 6 7 1009.2 1008.9 1.0
26/08:30pm 26.6 31.3 24.3 87 1.6 ESE 7 9 4 5 1008.6 1008.3 1.0
26/08:00pm 26.8 31.6 24.5 87 1.6 SE 7 9 4 5 1008.2 1007.9 1.0
26/07:30pm 27.2 33.5 24.7 86 1.7 CALM 0 0 0 0 1007.8 1007.5 1.0
26/07:00pm 27.6 32.6 23.8 80 2.6 NNW 4 7 2 4 1007.4 1007.1 1.0
26/06:30pm 27.6 32.3 24.0 81 2.5 N 6 9 3 5 1007.2 1006.9 1.0
26/06:00pm 27.9 32.8 23.7 78 2.9 NNE 4 7 2 4 1007.0 1006.7 1.0
26/05:30pm 27.3 31.7 23.5 80 2.6 NNE 6 7 3 4 1006.9 1006.6 1.0
26/05:00pm 27.7 32.6 23.7 79 2.8 NNE 4 7 2 4 1006.8 1006.5 1.0
26/04:30pm 27.1 31.9 24.2 84 2.0 NE 6 9 3 5 1006.9 1006.6 1.0
26/04:00pm 26.7 31.2 24.0 85 1.9 ENE 7 11 4 6 1007.2 1006.9 1.0
26/03:49pm 26.7 31.0 24.2 86 1.7 ENE 9 13 5 7 1007.3 1007.0 1.0
26/03:30pm 26.5 29.9 24.0 86 1.7 ENE 13 17 7 9 1007.5 1007.2 1.0
26/03:09pm 26.4 30.3 24.2 88 1.5 NE 11 13 6 7 1007.7 1007.4 1.0
26/03:00pm 26.3 30.6 24.3 89 1.4 NE 9 13 5 7 1007.7 1007.4 1.0
26/02:30pm 25.7 30.2 23.9 90 1.2 N 7 9 4 5 1007.9 1007.6 1.0
26/02:04pm 25.4 29.4 23.8 91 1.1 N 9 11 5 6 1008.3 1008.0 1.0
26/02:00pm 25.4 29.7 24.2 93 0.8 N 9 13 5 7 1008.4 1008.1 1.0
26/01:30pm 24.9 27.5 23.3 91 1.1 NE 15 22 8 12 1009.0 1008.7 0.6
26/01:25pm 24.9 27.1 23.3 91 1.1 NE 17 22 9 12 1009.0 1008.7 0.6
26/01:00pm 25.9 27.6 23.4 86 1.7 E 20 28 11 15 1009.2 1008.9 0.4
26/12:53pm 25.9 26.2 23.6 87 1.6 E 28 41 15 22 1009.3 1009.0 0.4
26/12:42pm 27.4 30.3 25.4 89 1.4 E 20 26 11 14 1009.4 1009.1 0.4
26/12:30pm 27.4 30.9 25.4 89 1.4 E 17 22 9 12 1009.5 1009.2 0.4
26/12:00pm 27.6 32.1 25.8 90 1.3 E 13 17 7 9 1009.8 1009.5 0.4
26/11:57am 27.6 32.2 26.0 91 1.1 ENE 13 17 7 9 1009.8 1009.5 0.4
26/11:30am 26.8 31.5 25.6 93 0.8 E 11 15 6 8 1009.9 1009.6 0.4
26/11:02am 26.6 31.6 25.4 93 0.8 ESE 9 13 5 7 1010.3 1010.0 0.2
26/11:00am 26.5 31.2 24.9 91 1.1 ESE 9 13 5 7 1010.3 1010.0 0.2
26/10:30am 26.4 31.1 25.0 92 1.0 ESE 9 13 5 7 1010.5 1010.2 13.4
26/10:00am 26.2 30.9 25.0 93 0.8 ESE 9 13 5 7 1010.7 1010.4 13.2
26/09:30am 25.9 30.6 24.9 94 0.7 E 9 11 5 6 1010.7 1010.4 13.0
26/09:00am 26.1 30.9 25.1 94 0.7 ESE 9 13 5 7 1010.3 1010.0 12.8
26/08:30am 25.9 30.2 24.9 94 0.7 E 11 15 6 8 1010.1 1009.8 12.8
26/08:00am 25.7 30.5 24.5 93 0.8 E 7 11 4 6 1009.9 1009.6 12.8
26/07:30am 25.5 31.6 24.5 94 0.7 CALM 0 7 0 4 1009.6 1009.3 12.8
26/07:00am 25.3 31.3 24.3 94 0.7 CALM 0 0 0 0 1009.0 1008.7 12.8
26/06:30am 25.2 31.2 24.3 95 0.6 CALM 0 0 0 0 1008.4 1008.1 12.8
26/06:00am 25.0 30.9 24.1 95 0.6 CALM 0 0 0 0 1008.4 1008.1 12.8
26/05:30am 25.0 30.8 24.0 94 0.7 CALM 0 0 0 0 1008.0 1007.7 12.8
26/05:00am 25.0 30.9 24.1 95 0.6 CALM 0 0 0 0 1007.6 1007.3 12.8
26/04:30am 25.0 30.9 24.1 95 0.6 CALM 0 0 0 0 1007.3 1007.0 12.8
26/04:00am 24.9 30.5 24.2 96 0.5 SW 2 6 1 3 1007.2 1006.9 12.6
26/03:30am 24.9 29.6 24.0 95 0.6 SW 6 7 3 4 1007.4 1007.1 12.6
26/03:00am 24.8 29.3 23.9 95 0.6 SSW 7 9 4 5 1007.4 1007.1 12.6
26/02:30am 25.0 29.7 24.0 94 0.7 SSE 6 7 3 4 1007.5 1007.2 12.6
26/02:00am 24.8 30.4 23.6 93 0.8 CALM 0 0 0 0 1007.8 1007.5 12.6
26/01:57am 24.8 30.5 23.8 94 0.7 CALM 0 6 0 3 1007.9 1007.6 12.6
26/01:30am 25.0 30.1 24.0 94 0.7 ESE 4 6 2 3 1007.9 1007.6 12.6
26/01:12am 24.7 29.5 23.5 93 0.8 SE 4 7 2 4 1008.1 1007.8 12.6
26/01:00am 24.7 29.1 23.5 93 0.8 SSE 6 7 3 4 1008.1 1007.8 12.4
26/12:30am 24.8 29.2 23.4 92 1.0 ESE 6 7 3 4 1008.3 1008.0 12.0
26/12:24am 24.8 29.2 23.8 94 0.7 E 7 11 4 6 1008.3 1008.0 11.8
26/12:02am 24.5 29.2 23.3 93 0.8 NE 4 7 2 4 1008.3 1008.0 11.6
26/12:00am 24.6 29.3 23.4 93 0.8 NE 4 7 2 4 1008.3 1008.0 11.4
 
Date/Time
CST
Temp
°C
App
Temp
°C
Dew
Point
°C
Rel
Hum
%
Delta-T
°C
Wind Press
QNH
hPa
Press
MSL
hPa
Rain since
9am
mm
Dir  Spd
km/h
Gust
km/h
Spd
kts
Gust
kts
25/11:30pm 24.6 28.8 23.4 93 0.8 NE 7 11 4 6 1008.2 1007.9 10.4
25/11:00pm 24.3 28.5 23.1 93 0.8 NNE 6 11 3 6 1008.4 1008.1 9.8
25/10:37pm 24.5 26.7 23.3 93 0.8 ENE 17 22 9 12 1008.7 1008.4 9.6
25/10:30pm 24.6 27.5 23.2 92 1.0 NNE 13 22 7 12 1008.9 1008.6 9.2
25/10:00pm 24.4 26.3 23.5 95 0.6 NNE 19 28 10 15 1009.2 1008.9 6.6
25/09:45pm 24.9 26.8 23.7 93 0.8 NE 20 24 11 13 1008.8 1008.5 1.2
25/09:30pm 25.6 27.5 23.7 89 1.3 NE 20 28 11 15 1008.5 1008.2 0.0
25/09:00pm 27.5 31.9 25.1 87 1.7 SE 11 13 6 7 1007.8 1007.5 0.0
25/08:30pm 27.8 32.3 24.6 83 2.2 SE 9 13 5 7 1007.1 1006.8 0.0
25/08:00pm 27.9 31.6 24.5 82 2.4 SE 13 17 7 9 1006.7 1006.4 0.0
25/07:30pm 27.8 31.8 24.4 82 2.4 SSW 11 13 6 7 1006.2 1005.9 0.0
25/07:00pm 28.3 32.7 24.5 80 2.6 SSW 9 13 5 7 1005.7 1005.4 0.0
25/06:30pm 29.1 33.1 24.4 76 3.3 S 11 17 6 9 1005.0 1004.7 0.0
25/06:00pm 30.2 34.2 25.0 73 3.7 SSE 13 20 7 11 1004.8 1004.5 0.0

Other formats

Comma delimited format used in spreadsheet applications
http://www.bom.gov.au/fwo/IDD60801/IDD60801.94216.axf

JavaScript Object Notation format (JSON) in row-major order
http://www.bom.gov.au/fwo/IDD60801/IDD60801.94216.json

Data quality

Most of these data are generated automatically and are frequently updated. Quality checks on data are not normally performed. It is possible for incorrect values to appear. Refer to information at About Latest Weather Observations and please check the disclaimer before using these data.